»·PEaware :: UAL743 KMRY-KBUR

UAL743 :: KMRY-KBUR

FLIGHT INFORMATION

Flight Status: Arrived
Operator:
United Airlines
More flights by this operator :: More flights under this callsign
Pilot: Sergei F. (8485)
Aircraft: BOEING 737-600
(B736)
More flights by this aircraft type
Origin: KMRY Monterey Peninsula
United States
Destination: KBUR Bob Hope-Burbank
United States
More flights between these airports :: More routes between these airports
Route: MRY5 SHOEY BSR J501 RZS V386 FIM FERN7
File this flight plan on PilotEdge
Remarks:
Altitude:
(Current/Filed)
31,000ft
Speed:
(Current/Filed)
396kts
Departed: 05-Nov-23 06:57 PM
Arrived: 05-Nov-23 07:40 PM
Distance/Time
Traveled:
223nm/0:43
Distance/Time
To Go:
Arrived

Flight Plot

Page will automatically refresh every two minutes.

Flight plan parsing failed; only flown route is shown


Map Options




Map Legend


Flown Route
Filed Route
Departure Airport
Arrival Airport
Navaid (VOR, NDB)
Fix

Horizontal Profiles

Position Reports

Time Latitude Longitude Heading Altitude Ground
Speed
05-Nov-23 18:26 36.587764 -121.850258 293 208ft 0kts
05-Nov-23 18:27 36.587764 -121.850258 293 208ft 0kts
05-Nov-23 18:28 36.587764 -121.850258 293 208ft 0kts
05-Nov-23 18:29 36.587764 -121.850258 293 208ft 0kts
05-Nov-23 18:30 36.587764 -121.850258 293 208ft 0kts
05-Nov-23 18:31 36.587764 -121.850258 293 208ft 0kts
05-Nov-23 18:32 36.587764 -121.850258 293 208ft 0kts
05-Nov-23 18:33 36.587764 -121.850258 293 208ft 0kts
05-Nov-23 18:34 36.587764 -121.850258 293 208ft 0kts
05-Nov-23 18:35 36.587764 -121.850258 293 208ft 0kts
05-Nov-23 18:36 36.587764 -121.850258 293 208ft 0kts
05-Nov-23 18:36 36.587764 -121.850258 293 208ft 0kts
05-Nov-23 18:37 36.587764 -121.850258 293 208ft 0kts
05-Nov-23 18:39 36.587764 -121.850258 293 208ft 0kts
05-Nov-23 18:40 36.587764 -121.850258 293 208ft 0kts
05-Nov-23 18:41 36.587764 -121.850258 293 208ft 0kts
05-Nov-23 18:41 36.587764 -121.850258 293 208ft 0kts
05-Nov-23 18:42 36.587764 -121.850258 293 208ft 0kts
05-Nov-23 18:43 36.587780 -121.849677 213 208ft 2kts
05-Nov-23 18:44 36.587752 -121.849390 111 211ft 1kts
05-Nov-23 18:46 36.587714 -121.848875 114 208ft 0kts
05-Nov-23 18:47 36.587714 -121.848875 114 208ft 0kts
05-Nov-23 18:47 36.587714 -121.848875 114 208ft 0kts
05-Nov-23 18:48 36.587714 -121.848875 114 208ft 0kts
05-Nov-23 18:49 36.587714 -121.848875 114 208ft 0kts
05-Nov-23 18:50 36.587362 -121.847867 113 213ft 9kts
05-Nov-23 18:51 36.586183 -121.844802 112 208ft 9kts
05-Nov-23 18:52 36.584887 -121.840978 112 208ft 11kts
05-Nov-23 18:53 36.583666 -121.837384 112 209ft 10kts
05-Nov-23 18:54 36.582861 -121.834130 84 208ft 6kts
05-Nov-23 18:55 36.583424 -121.833758 290 208ft 0kts
05-Nov-23 18:56 36.591815 -121.858356 291 598ft 164kts
05-Nov-23 18:57 36.625457 -121.892760 334 3654ft 174kts
05-Nov-23 18:58 36.676722 -121.919030 331 6041ft 214kts
05-Nov-23 18:59 36.717682 -121.963035 261 8844ft 198kts
05-Nov-23 19:00 36.672345 -121.986536 162 11323ft 234kts
05-Nov-23 19:01 36.604860 -121.939177 156 12238ft 331kts
05-Nov-23 19:02 36.517847 -121.877258 157 14826ft 371kts
05-Nov-23 19:03 36.426722 -121.813223 158 17968ft 384kts
05-Nov-23 19:04 36.331992 -121.747046 158 19031ft 394kts
05-Nov-23 19:05 36.236033 -121.680178 158 19055ft 397kts
05-Nov-23 19:06 36.145179 -121.602547 144 19047ft 413kts
05-Nov-23 19:07 36.060408 -121.503504 144 21065ft 425kts
05-Nov-23 19:08 35.971497 -121.401412 144 23320ft 447kts
05-Nov-23 19:09 35.878556 -121.295233 144 25181ft 464kts
05-Nov-23 19:10 35.781951 -121.185250 144 26946ft 482kts
05-Nov-23 19:11 35.681447 -121.071210 143 28649ft 499kts
05-Nov-23 19:12 35.577892 -120.954114 143 30214ft 515kts
05-Nov-23 19:13 35.472583 -120.835409 143 31009ft 511kts
05-Nov-23 19:14 35.367628 -120.717718 143 31043ft 511kts
05-Nov-23 19:15 35.262512 -120.600245 143 31051ft 512kts
05-Nov-23 19:16 35.157609 -120.483472 142 31035ft 511kts
05-Nov-23 19:17 35.052396 -120.366734 142 31049ft 510kts
05-Nov-23 19:18 34.947273 -120.250522 142 31053ft 510kts
05-Nov-23 19:19 34.841915 -120.134472 142 31031ft 511kts
05-Nov-23 19:20 34.738112 -120.020497 142 28614ft 502kts
05-Nov-23 19:21 34.636326 -119.909109 142 26025ft 476kts
05-Nov-23 19:22 34.540831 -119.804688 139 22734ft 451kts
05-Nov-23 19:23 34.491196 -119.669366 102 20412ft 440kts
05-Nov-23 19:24 34.468138 -119.526139 103 17994ft 429kts
05-Nov-23 19:25 34.444408 -119.386946 103 15606ft 413kts
05-Nov-23 19:26 34.421543 -119.253832 103 13283ft 389kts
05-Nov-23 19:27 34.400307 -119.131021 103 11256ft 353kts
05-Nov-23 19:28 34.380891 -119.026328 110 10876ft 287kts
05-Nov-23 19:29 34.355452 -118.937446 111 9641ft 276kts
05-Nov-23 19:30 34.330355 -118.851215 111 8307ft 267kts
05-Nov-23 19:31 34.305633 -118.768413 111 7035ft 260kts
05-Nov-23 19:32 34.281237 -118.688384 111 5713ft 240kts
05-Nov-23 19:33 34.255575 -118.618631 116 4330ft 212kts
05-Nov-23 19:34 34.232793 -118.561807 116 3980ft 173kts
05-Nov-23 19:35 34.211911 -118.509465 116 3655ft 165kts
05-Nov-23 19:36 34.199060 -118.460651 92 2396ft 151kts
05-Nov-23 19:37 34.198432 -118.412136 91 1483ft 136kts
05-Nov-23 19:38 34.197863 -118.366565 91 737ft 135kts
05-Nov-23 19:39 34.197619 -118.351285 119 695ft 6kts
05-Nov-23 19:40 34.196726 -118.351067 180 689ft 0kts
05-Nov-23 19:41 34.196726 -118.351067 180 689ft 0kts
05-Nov-23 19:42 34.196726 -118.351067 180 689ft 0kts
05-Nov-23 19:43 34.196726 -118.351067 180 689ft 0kts
05-Nov-23 19:44 34.196726 -118.351067 180 689ft 0kts
05-Nov-23 19:45 34.196726 -118.351067 180 689ft 0kts
05-Nov-23 19:46 34.196726 -118.351067 180 689ft 0kts

Navigation Log

Ident Type
Flight plan parsing failed, navigation log unavailable